createdAt,value
2022-12-11T00:01:24.920Z,-0.91
2022-12-11T00:03:51.796Z,-0.92
2022-12-11T00:06:20.461Z,-0.94
2022-12-11T00:08:47.501Z,-0.96
2022-12-11T00:11:17.275Z,-0.99
2022-12-11T00:13:43.857Z,-1.03
2022-12-11T00:16:10.883Z,-1.05
2022-12-11T00:18:37.634Z,-1.06
2022-12-11T00:21:06.080Z,-1.06
2022-12-11T00:23:35.058Z,-1.01
2022-12-11T00:26:09.820Z,-0.99
2022-12-11T00:28:36.410Z,-0.97
2022-12-11T00:31:08.693Z,-0.97
2022-12-11T00:33:35.127Z,-0.97
2022-12-11T00:36:01.757Z,-0.93
2022-12-11T00:38:28.737Z,-0.95
2022-12-11T00:40:59.518Z,-0.92
2022-12-11T00:43:26.067Z,-0.93
2022-12-11T00:45:52.660Z,-0.97
2022-12-11T00:48:19.543Z,-0.96
2022-12-11T00:50:46.772Z,-0.98
2022-12-11T00:53:13.153Z,-0.97
2022-12-11T00:55:41.402Z,-0.94
2022-12-11T00:58:09.764Z,-0.95
2022-12-11T01:00:36.445Z,-1.01
2022-12-11T01:03:03.670Z,-1.01
2022-12-11T01:05:30.345Z,-0.97
2022-12-11T01:07:56.889Z,-0.96
2022-12-11T01:10:26.387Z,-0.98
2022-12-11T01:13:10.406Z,-0.93
2022-12-11T01:15:53.536Z,-0.88
2022-12-11T01:18:48.118Z,-0.85
2022-12-11T01:21:34.002Z,-0.84
2022-12-11T01:35:17.298Z,-0.75
2022-12-11T01:38:09.977Z,-0.77
2022-12-11T01:40:37.893Z,-0.74
2022-12-11T01:43:48.448Z,-0.75
2022-12-11T02:12:49.966Z,-0.66
2022-12-11T02:15:30.784Z,-0.66
2022-12-11T02:18:20.227Z,-0.66
2022-12-11T02:20:52.559Z,-0.65
2022-12-11T02:23:37.804Z,-0.65
2022-12-11T02:26:18.241Z,-0.64
2022-12-11T02:28:54.135Z,-0.65
2022-12-11T02:31:24.122Z,-0.66
2022-12-11T02:34:03.033Z,-0.65
2022-12-11T02:36:33.699Z,-0.64
2022-12-11T02:39:03.128Z,-0.62
2022-12-11T02:41:31.075Z,-0.63
2022-12-11T02:43:58.583Z,-0.64
2022-12-11T02:46:26.307Z,-0.67
2022-12-11T02:48:53.919Z,-0.69
2022-12-11T02:51:26.533Z,-0.68
2022-12-11T02:53:56.884Z,-0.66
2022-12-11T02:56:32.813Z,-0.66
2022-12-11T02:59:10.285Z,-0.66
2022-12-11T03:01:36.988Z,-0.65
2022-12-11T03:04:03.463Z,-0.66
2022-12-11T03:06:37.059Z,-0.64
2022-12-11T03:09:05.588Z,-0.64
2022-12-11T03:11:31.954Z,-0.64
2022-12-11T03:13:59.081Z,-0.65
2022-12-11T03:16:38.053Z,-0.63
2022-12-11T03:19:10.318Z,-0.63
2022-12-11T03:21:45.540Z,-0.62
2022-12-11T03:24:30.108Z,-0.61
2022-12-11T03:27:06.805Z,-0.61
2022-12-11T03:29:40.909Z,-0.61
2022-12-11T03:32:12.466Z,-0.62
2022-12-11T03:34:46.837Z,-0.62
2022-12-11T03:37:14.945Z,-0.65
2022-12-11T03:39:47.170Z,-0.68
2022-12-11T03:42:16.101Z,-0.69
2022-12-11T03:44:47.656Z,-0.70
2022-12-11T03:47:18.474Z,-0.72
2022-12-11T03:49:46.418Z,-0.72
2022-12-11T03:52:15.045Z,-0.72
2022-12-11T03:54:45.713Z,-0.70
2022-12-11T03:57:16.046Z,-0.72
2022-12-11T03:59:42.519Z,-0.72
2022-12-11T04:02:10.843Z,-0.72
2022-12-11T04:04:42.182Z,-0.73
2022-12-11T04:07:08.831Z,-0.73
2022-12-11T04:09:35.507Z,-0.72
2022-12-11T04:12:01.917Z,-0.74
2022-12-11T04:14:46.735Z,-0.76
2022-12-11T04:17:33.050Z,-0.77
2022-12-11T04:20:17.942Z,-0.78
2022-12-11T04:23:02.662Z,-0.78
2022-12-11T04:25:29.005Z,-0.79
2022-12-11T04:27:55.450Z,-0.79
2022-12-11T04:30:28.018Z,-0.79
2022-12-11T04:32:57.246Z,-0.81
2022-12-11T04:35:23.936Z,-0.81
2022-12-11T04:37:50.460Z,-0.83
2022-12-11T04:40:18.666Z,-0.84
2022-12-11T04:42:45.119Z,-0.87
2022-12-11T04:45:12.132Z,-0.86
2022-12-11T04:47:40.385Z,-0.86
2022-12-11T04:50:11.710Z,-0.85
2022-12-11T04:52:38.110Z,-0.86
2022-12-11T04:55:08.252Z,-0.87
2022-12-11T04:57:35.223Z,-0.88
2022-12-11T05:00:02.119Z,-0.89
2022-12-11T05:02:28.616Z,-0.90
2022-12-11T05:04:55.102Z,-0.91
2022-12-11T05:07:21.497Z,-0.91
2022-12-11T05:09:47.914Z,-0.89
2022-12-11T05:12:14.290Z,-0.88
2022-12-11T05:14:40.667Z,-0.86
2022-12-11T05:17:07.069Z,-0.88
2022-12-11T05:19:33.590Z,-0.92
2022-12-11T05:21:59.971Z,-0.98
2022-12-11T05:24:26.368Z,-1.06
2022-12-11T05:26:52.799Z,-1.09
2022-12-11T05:29:19.121Z,-1.16
2022-12-11T05:31:45.577Z,-1.18
2022-12-11T05:34:11.975Z,-1.16
2022-12-11T05:36:38.668Z,-1.18
2022-12-11T05:39:05.171Z,-1.20
2022-12-11T05:41:32.617Z,-1.25
2022-12-11T05:43:59.281Z,-1.29
2022-12-11T05:46:28.599Z,-1.32
2022-12-11T05:49:00.243Z,-1.36
2022-12-11T05:51:27.436Z,-1.40
2022-12-11T05:53:55.378Z,-1.42
2022-12-11T05:56:27.864Z,-1.36
2022-12-11T05:58:55.293Z,-1.34
2022-12-11T06:01:24.476Z,-1.34
2022-12-11T06:03:51.492Z,-1.36
2022-12-11T06:06:17.941Z,-1.38
2022-12-11T06:08:44.280Z,-1.42
2022-12-11T06:11:14.012Z,-1.48
2022-12-11T06:13:40.390Z,-1.54
2022-12-11T06:16:07.798Z,-1.55
2022-12-11T06:18:39.126Z,-1.57
2022-12-11T06:21:17.387Z,-1.62
2022-12-11T06:23:45.252Z,-1.64
2022-12-11T06:26:11.883Z,-1.66
2022-12-11T06:28:38.945Z,-1.67
2022-12-11T06:31:05.976Z,-1.69
2022-12-11T06:33:32.914Z,-1.70
2022-12-11T06:36:08.122Z,-1.69
2022-12-11T06:38:35.040Z,-1.70
2022-12-11T06:41:04.833Z,-1.72
2022-12-11T06:43:36.995Z,-1.73
2022-12-11T06:46:07.974Z,-1.69
2022-12-11T06:48:35.036Z,-1.64
2022-12-11T06:51:22.637Z,-1.62
2022-12-11T06:53:53.530Z,-1.59
2022-12-11T06:56:20.842Z,-1.56
2022-12-11T06:58:47.444Z,-1.55
2022-12-11T07:01:25.823Z,-1.52
2022-12-11T07:03:54.286Z,-1.52
2022-12-11T07:06:20.872Z,-1.51
2022-12-11T07:08:47.297Z,-1.50
2022-12-11T07:11:16.101Z,-1.48
2022-12-11T07:13:43.344Z,-1.47
2022-12-11T07:16:12.728Z,-1.45
2022-12-11T07:18:42.293Z,-1.47
2022-12-11T07:21:10.228Z,-1.49
2022-12-11T07:23:36.879Z,-1.48
2022-12-11T07:26:08.389Z,-1.45
2022-12-11T07:28:35.194Z,-1.39
2022-12-11T07:31:09.769Z,-1.34
2022-12-11T07:33:36.512Z,-1.31
2022-12-11T07:36:04.799Z,-1.31
2022-12-11T07:38:31.520Z,-1.31
2022-12-11T07:41:02.463Z,-1.31
2022-12-11T07:43:28.906Z,-1.33
2022-12-11T07:45:55.357Z,-1.31
2022-12-11T07:48:21.808Z,-1.29
2022-12-11T07:50:48.142Z,-1.28
2022-12-11T07:53:14.507Z,-1.26
2022-12-11T07:55:40.895Z,-1.25
2022-12-11T07:58:07.333Z,-1.22
2022-12-11T08:00:33.721Z,-1.18
2022-12-11T08:03:00.094Z,-1.16
2022-12-11T08:05:26.430Z,-1.14
2022-12-11T08:07:52.849Z,-1.12
2022-12-11T08:10:19.378Z,-1.09
2022-12-11T08:12:45.735Z,-1.05
2022-12-11T08:15:12.409Z,-1.07
2022-12-11T08:17:40.299Z,-1.09
2022-12-11T08:20:08.267Z,-1.13
2022-12-11T08:22:34.653Z,-1.10
2022-12-11T08:25:01.034Z,-1.08
2022-12-11T08:27:27.429Z,-1.12
2022-12-11T08:29:53.824Z,-1.12
2022-12-11T08:32:20.364Z,-1.16
2022-12-11T08:34:46.787Z,-1.17
2022-12-11T08:37:13.575Z,-1.19
2022-12-11T08:39:39.978Z,-1.20
2022-12-11T08:42:06.974Z,-1.22
2022-12-11T08:44:33.404Z,-1.21
2022-12-11T08:46:59.862Z,-1.21
2022-12-11T08:49:29.878Z,-1.19
2022-12-11T08:51:59.199Z,-1.14
2022-12-11T08:54:26.614Z,-1.08
2022-12-11T08:56:57.732Z,-1.02
2022-12-11T08:59:25.757Z,-0.97
2022-12-11T09:01:52.649Z,-0.88
2022-12-11T09:04:19.253Z,-0.84
2022-12-11T09:06:45.735Z,-0.74
2022-12-11T09:09:12.794Z,-0.67
2022-12-11T09:11:39.332Z,-0.60
2022-12-11T09:14:07.929Z,-0.48
2022-12-11T09:16:37.879Z,-0.42
2022-12-11T09:19:04.797Z,-0.40
2022-12-11T09:21:31.262Z,-0.37
2022-12-11T09:24:00.335Z,-0.38
2022-12-11T09:26:28.500Z,-0.35
2022-12-11T09:28:55.029Z,-0.38
2022-12-11T09:31:24.695Z,-0.28
2022-12-11T09:33:54.068Z,-0.22
2022-12-11T09:36:20.517Z,-0.19
2022-12-11T09:38:47.239Z,-0.14
2022-12-11T09:41:28.063Z,-0.07
2022-12-11T09:44:19.576Z,-0.02
2022-12-11T09:46:47.428Z,-0.02
2022-12-11T09:49:35.431Z,0.01
2022-12-11T09:52:20.400Z,0.03
2022-12-11T09:54:57.570Z,0.04
2022-12-11T09:58:11.555Z,0.02
2022-12-11T10:00:49.530Z,-0.01
2022-12-11T10:03:40.343Z,0.04
2022-12-11T10:06:29.498Z,0.08
2022-12-11T10:09:03.679Z,0.11
2022-12-11T10:11:41.782Z,0.15
2022-12-11T10:14:26.102Z,0.15
2022-12-11T10:17:00.146Z,0.15
2022-12-11T10:19:30.627Z,0.16
2022-12-11T10:21:58.006Z,0.23
2022-12-11T10:27:28.688Z,0.35
2022-12-11T10:30:18.754Z,0.39
2022-12-11T10:32:54.518Z,0.48
2022-12-11T10:35:47.175Z,0.54
2022-12-11T10:38:22.393Z,0.56
2022-12-11T10:40:55.509Z,0.45
2022-12-11T10:43:43.264Z,0.45
2022-12-11T10:46:30.123Z,0.48
2022-12-11T10:48:59.056Z,0.41
2022-12-11T10:51:37.959Z,0.40
2022-12-11T10:54:08.808Z,0.31
2022-12-11T10:56:37.907Z,0.28
2022-12-11T10:59:05.128Z,0.30
2022-12-11T11:01:32.871Z,0.37
2022-12-11T11:03:59.363Z,0.46
2022-12-11T11:06:28.120Z,0.48
2022-12-11T11:09:00.073Z,0.46
2022-12-11T11:11:30.373Z,0.50
2022-12-11T11:14:20.679Z,0.50
2022-12-11T11:16:49.363Z,0.52
2022-12-11T11:19:23.457Z,0.52
2022-12-11T11:22:16.517Z,0.61
2022-12-11T11:24:54.420Z,0.69
2022-12-11T11:27:42.761Z,0.76
2022-12-11T11:30:22.895Z,0.79
2022-12-11T11:32:55.626Z,0.78
2022-12-11T11:35:26.533Z,0.75
2022-12-11T11:38:16.315Z,0.64
2022-12-11T11:40:47.170Z,0.55
2022-12-11T11:43:29.118Z,0.61
2022-12-11T11:48:43.706Z,0.74
2022-12-11T11:51:20.976Z,0.81
2022-12-11T11:53:51.435Z,0.84
2022-12-11T11:56:35.006Z,0.81
2022-12-11T11:59:13.948Z,0.81
2022-12-11T12:01:46.124Z,0.89
2022-12-11T12:04:18.873Z,0.89
2022-12-11T12:07:20.265Z,0.85
2022-12-11T12:09:59.217Z,0.85
2022-12-11T12:12:35.528Z,0.87
2022-12-11T12:15:22.517Z,0.88
2022-12-11T12:21:03.623Z,0.92
2022-12-11T12:23:41.143Z,0.80
2022-12-11T12:26:27.831Z,0.71
2022-12-11T12:29:04.764Z,0.61
2022-12-11T12:31:52.411Z,0.56
2022-12-11T12:37:00.419Z,0.45
2022-12-11T12:39:48.959Z,0.46
2022-12-11T12:42:27.445Z,0.40
2022-12-11T12:45:13.504Z,0.35
2022-12-11T12:47:43.471Z,0.34
2022-12-11T12:50:17.450Z,0.38
2022-12-11T12:52:44.797Z,0.49
2022-12-11T12:55:14.585Z,0.47
2022-12-11T12:57:49.538Z,0.44
2022-12-11T13:00:35.995Z,0.39
2022-12-11T13:03:14.090Z,0.38
2022-12-11T13:05:43.183Z,0.46
2022-12-11T13:08:11.252Z,0.49
2022-12-11T13:10:41.459Z,0.38
2022-12-11T13:13:32.805Z,0.32
2022-12-11T13:16:07.795Z,0.29
2022-12-11T13:18:39.335Z,0.24
2022-12-11T13:21:30.497Z,0.14
2022-12-11T13:24:19.715Z,0.08
2022-12-11T13:26:46.927Z,0.07
2022-12-11T13:29:34.377Z,0.09
2022-12-11T13:32:09.600Z,0.14
2022-12-11T13:34:42.144Z,0.14
2022-12-11T13:37:33.039Z,0.16
2022-12-11T13:40:03.573Z,0.21
2022-12-11T13:42:47.574Z,0.25
2022-12-11T13:45:27.441Z,0.33
2022-12-11T13:47:57.371Z,0.39
2022-12-11T13:50:31.858Z,0.41
2022-12-11T13:53:03.487Z,0.49
2022-12-11T13:55:32.640Z,0.54
2022-12-11T13:57:59.415Z,0.54
2022-12-11T14:00:30.292Z,0.54
2022-12-11T14:03:00.582Z,0.58
2022-12-11T14:05:27.454Z,0.47
2022-12-11T14:07:57.056Z,0.37
2022-12-11T14:10:29.733Z,0.38
2022-12-11T14:13:06.608Z,0.41
2022-12-11T14:15:36.160Z,0.42
2022-12-11T14:18:04.846Z,0.42
2022-12-11T14:20:33.921Z,0.40
2022-12-11T14:23:19.506Z,0.44
2022-12-11T14:26:17.074Z,0.48
2022-12-11T14:28:43.923Z,0.47
2022-12-11T14:31:15.658Z,0.43
2022-12-11T14:33:47.443Z,0.42
2022-12-11T14:36:16.450Z,0.41
2022-12-11T14:38:47.840Z,0.33
2022-12-11T14:41:21.482Z,0.28
2022-12-11T14:43:51.600Z,0.22
2022-12-11T14:46:59.695Z,0.13
2022-12-11T14:49:40.662Z,0.02
2022-12-11T14:52:17.253Z,0.02
2022-12-11T14:54:53.167Z,0.03
2022-12-11T14:57:23.285Z,-0.02
2022-12-11T14:59:52.636Z,-0.03
2022-12-11T15:02:34.231Z,-0.08
2022-12-11T15:05:18.998Z,-0.12
2022-12-11T15:08:25.092Z,-0.20
2022-12-11T15:11:01.183Z,-0.25
2022-12-11T15:13:28.303Z,-0.26
2022-12-11T15:15:57.047Z,-0.25
2022-12-11T15:18:28.401Z,-0.24
2022-12-11T15:20:58.470Z,-0.26
2022-12-11T15:23:25.312Z,-0.26
2022-12-11T15:25:57.329Z,-0.30
2022-12-11T15:31:25.234Z,-0.33
2022-12-11T15:33:52.296Z,-0.37
2022-12-11T15:36:24.581Z,-0.39
2022-12-11T15:38:51.185Z,-0.44
2022-12-11T15:41:24.779Z,-0.46
2022-12-11T15:43:59.097Z,-0.46
2022-12-11T15:46:26.213Z,-0.45
2022-12-11T15:48:52.849Z,-0.45
2022-12-11T15:51:19.333Z,-0.50
2022-12-11T15:53:45.819Z,-0.47
2022-12-11T15:56:16.446Z,-0.43
2022-12-11T15:58:47.510Z,-0.38
2022-12-11T16:01:14.279Z,-0.36
2022-12-11T16:03:40.825Z,-0.34
2022-12-11T16:06:12.042Z,-0.35
2022-12-11T16:08:38.562Z,-0.37
2022-12-11T16:11:05.200Z,-0.35
2022-12-11T16:13:31.670Z,-0.36
2022-12-11T16:15:58.389Z,-0.39
2022-12-11T16:18:25.893Z,-0.41
2022-12-11T16:20:52.784Z,-0.42
2022-12-11T16:23:19.457Z,-0.44
2022-12-11T16:25:46.762Z,-0.43
2022-12-11T16:28:15.837Z,-0.45
2022-12-11T16:30:43.512Z,-0.46
2022-12-11T16:33:13.297Z,-0.47
2022-12-11T16:35:41.304Z,-0.45
2022-12-11T16:38:08.188Z,-0.47
2022-12-11T16:40:34.650Z,-0.51
2022-12-11T16:43:02.004Z,-0.51
2022-12-11T16:45:28.458Z,-0.50
2022-12-11T16:47:55.021Z,-0.51
2022-12-11T16:50:22.403Z,-0.54
2022-12-11T16:52:49.202Z,-0.54
2022-12-11T16:55:15.985Z,-0.58
2022-12-11T16:57:42.639Z,-0.60
2022-12-11T17:00:12.163Z,-0.61
2022-12-11T17:02:38.933Z,-0.62
2022-12-11T17:05:16.389Z,-0.64
2022-12-11T17:07:42.928Z,-0.61
2022-12-11T17:10:09.633Z,-0.59
2022-12-11T17:12:36.041Z,-0.60
2022-12-11T17:15:02.536Z,-0.60
2022-12-11T17:17:28.994Z,-0.59
2022-12-11T17:19:55.439Z,-0.60
2022-12-11T17:22:21.975Z,-0.63
2022-12-11T17:24:48.344Z,-0.63
2022-12-11T17:27:14.806Z,-0.64
2022-12-11T17:29:41.165Z,-0.62
2022-12-11T17:32:07.578Z,-0.60
2022-12-11T17:34:38.203Z,-0.61
2022-12-11T17:37:05.621Z,-0.59
2022-12-11T17:39:32.133Z,-0.59
2022-12-11T17:41:58.548Z,-0.58
2022-12-11T17:44:26.552Z,-0.56
2022-12-11T17:46:53.240Z,-0.54
2022-12-11T17:49:19.868Z,-0.54
2022-12-11T17:51:47.762Z,-0.52
2022-12-11T17:54:14.236Z,-0.53
2022-12-11T17:56:40.826Z,-0.50
2022-12-11T17:59:07.222Z,-0.47
2022-12-11T18:01:33.877Z,-0.53
2022-12-11T18:04:01.903Z,-0.61
2022-12-11T18:06:29.180Z,-0.69
2022-12-11T18:08:56.004Z,-0.76
2022-12-11T18:11:23.177Z,-0.83
2022-12-11T18:13:51.799Z,-0.88
2022-12-11T18:16:28.181Z,-0.92
2022-12-11T18:18:56.315Z,-0.96
2022-12-11T18:21:26.149Z,-1.00
2022-12-11T18:23:53.166Z,-1.03
2022-12-11T18:26:20.403Z,-1.06
2022-12-11T18:28:48.051Z,-1.10
2022-12-11T18:31:15.588Z,-1.13
2022-12-11T18:33:44.015Z,-1.16
2022-12-11T18:36:11.830Z,-1.18
2022-12-11T18:38:38.961Z,-1.22
2022-12-11T18:41:07.259Z,-1.24
2022-12-11T18:43:34.269Z,-1.26
2022-12-11T18:46:04.112Z,-1.30
2022-12-11T18:48:30.509Z,-1.31
2022-12-11T18:50:56.887Z,-1.31
2022-12-11T18:53:23.359Z,-1.34
2022-12-11T18:55:49.935Z,-1.34
2022-12-11T18:58:18.455Z,-1.36
2022-12-11T19:00:45.762Z,-1.36
2022-12-11T19:03:14.097Z,-1.35
2022-12-11T19:05:44.685Z,-1.33
2022-12-11T19:08:17.012Z,-1.32
2022-12-11T19:13:31.988Z,-1.28
2022-12-11T19:16:08.770Z,-1.28
2022-12-11T19:18:49.841Z,-1.26
2022-12-11T19:21:46.179Z,-1.24
2022-12-11T19:24:23.802Z,-1.24
2022-12-11T19:27:22.802Z,-1.22
2022-12-11T19:30:03.524Z,-1.23
2022-12-11T19:32:36.586Z,-1.20
2022-12-11T19:35:11.567Z,-1.20
2022-12-11T19:37:51.228Z,-1.19
2022-12-11T19:40:26.515Z,-1.20
2022-12-11T19:43:05.856Z,-1.21
2022-12-11T19:45:40.041Z,-1.24
2022-12-11T19:48:17.704Z,-1.26
2022-12-11T19:50:56.545Z,-1.30
2022-12-11T19:53:34.860Z,-1.30
2022-12-11T19:56:08.127Z,-1.28
2022-12-11T19:58:45.093Z,-1.19
2022-12-11T20:01:30.327Z,-1.15
2022-12-11T20:04:22.251Z,-1.11
2022-12-11T20:06:59.352Z,-1.07
2022-12-11T20:09:30.899Z,-1.03
2022-12-11T20:12:25.078Z,-0.99
2022-12-11T20:15:04.283Z,-0.95
2022-12-11T20:17:31.356Z,-0.95
2022-12-11T20:19:57.850Z,-0.94
2022-12-11T20:22:24.214Z,-0.96
2022-12-11T20:24:50.690Z,-0.96
2022-12-11T20:27:17.209Z,-0.98
2022-12-11T20:29:43.673Z,-1.01
2022-12-11T20:32:11.359Z,-1.02
2022-12-11T20:34:38.317Z,-1.03
2022-12-11T20:37:04.783Z,-1.02
2022-12-11T20:39:31.980Z,-1.02
2022-12-11T20:41:58.628Z,-1.03
2022-12-11T20:44:25.141Z,-1.02
2022-12-11T20:46:51.639Z,-1.00
2022-12-11T20:52:09.622Z,-0.97
2022-12-11T20:54:35.988Z,-0.97
2022-12-11T20:57:02.480Z,-0.99
2022-12-11T20:59:28.943Z,-0.98
2022-12-11T21:01:55.956Z,-0.98
2022-12-11T21:04:23.095Z,-0.97
2022-12-11T21:06:55.364Z,-0.97
2022-12-11T21:09:24.932Z,-0.95
2022-12-11T21:11:52.225Z,-0.93
2022-12-11T21:14:19.918Z,-0.96
2022-12-11T21:16:47.060Z,-0.99
2022-12-11T21:19:17.529Z,-1.04
2022-12-11T21:21:45.374Z,-1.00
2022-12-11T21:24:16.475Z,-1.03
2022-12-11T21:26:43.403Z,-1.02
2022-12-11T21:29:09.872Z,-1.01
2022-12-11T21:31:36.846Z,-1.01
2022-12-11T21:34:04.010Z,-1.00
2022-12-11T21:36:30.933Z,-1.00
2022-12-11T21:38:59.364Z,-1.00
2022-12-11T21:41:26.301Z,-1.02
2022-12-11T21:46:42.061Z,-0.97
2022-12-11T21:49:08.816Z,-0.92
2022-12-11T21:51:42.696Z,-0.94
2022-12-11T21:54:19.552Z,-0.98
2022-12-11T21:56:46.627Z,-0.97
2022-12-11T21:59:13.676Z,-0.93
2022-12-11T22:01:42.574Z,-0.93
2022-12-11T22:04:10.304Z,-0.88
2022-12-11T22:06:36.990Z,-0.89
2022-12-11T22:12:49.803Z,-0.86
2022-12-11T22:15:16.295Z,-0.84
2022-12-11T22:17:42.710Z,-0.85
2022-12-11T22:20:09.432Z,-0.85
2022-12-11T22:22:35.855Z,-0.87
2022-12-11T22:25:03.627Z,-0.89
2022-12-11T22:27:30.015Z,-0.92
2022-12-11T22:29:56.366Z,-0.90
2022-12-11T22:32:23.530Z,-0.91
2022-12-11T22:34:49.876Z,-0.91
2022-12-11T22:37:16.300Z,-0.91
2022-12-11T22:39:42.665Z,-0.92
2022-12-11T22:42:09.079Z,-0.94
2022-12-11T22:44:35.468Z,-0.94
2022-12-11T22:47:01.893Z,-0.95
2022-12-11T22:49:28.338Z,-0.95
2022-12-11T22:51:54.839Z,-0.95
2022-12-11T22:54:21.233Z,-0.94
2022-12-11T22:56:47.621Z,-0.95
2022-12-11T22:59:14.058Z,-0.98
2022-12-11T23:01:40.637Z,-0.96
2022-12-11T23:04:07.039Z,-0.96
2022-12-11T23:06:33.510Z,-0.98
2022-12-11T23:09:01.204Z,-0.98
2022-12-11T23:11:31.799Z,-0.99
2022-12-11T23:13:58.219Z,-1.02
2022-12-11T23:16:26.061Z,-1.00
2022-12-11T23:18:53.262Z,-0.97
2022-12-11T23:21:21.649Z,-0.97
2022-12-11T23:23:49.032Z,-0.96
2022-12-11T23:26:18.613Z,-0.95
2022-12-11T23:28:46.171Z,-0.94
2022-12-11T23:31:12.676Z,-0.96
2022-12-11T23:33:39.523Z,-0.97
2022-12-11T23:36:06.663Z,-0.96
2022-12-11T23:38:33.375Z,-0.97
2022-12-11T23:41:01.144Z,-0.97
2022-12-11T23:43:27.756Z,-0.99
2022-12-11T23:45:54.381Z,-0.99
2022-12-11T23:48:21.251Z,-0.99
2022-12-11T23:50:48.074Z,-0.99
2022-12-11T23:53:15.259Z,-1.00
2022-12-11T23:55:44.217Z,-0.97
2022-12-11T23:58:11.769Z,-0.95
